sensor_id;sensor_type;location;lat;lon;timestamp;pressure;altitude;pressure_sealevel;temperature;humidity
42335;BME280;27986;42.700;24.178;2022-11-11T00:01:56;94893.75;;;6.99;93.16
42335;BME280;27986;42.700;24.178;2022-11-11T00:04:23;94905.44;;;6.98;93.21
42335;BME280;27986;42.700;24.178;2022-11-11T00:06:48;94911.09;;;6.89;94.61
42335;BME280;27986;42.700;24.178;2022-11-11T00:09:14;94871.75;;;6.83;94.37
42335;BME280;27986;42.700;24.178;2022-11-11T00:11:39;94906.00;;;7.26;92.86
42335;BME280;27986;42.700;24.178;2022-11-11T00:14:05;94861.31;;;6.84;91.01
42335;BME280;27986;42.700;24.178;2022-11-11T00:16:30;94888.28;;;7.20;90.68
42335;BME280;27986;42.700;24.178;2022-11-11T00:19:15;94866.22;;;7.13;90.60
42335;BME280;27986;42.700;24.178;2022-11-11T00:21:59;94895.91;;;7.19;88.15
42335;BME280;27986;42.700;24.178;2022-11-11T00:24:43;94901.97;;;7.03;90.68
42335;BME280;27986;42.700;24.178;2022-11-11T00:27:27;94900.34;;;7.11;90.91
42335;BME280;27986;42.700;24.178;2022-11-11T00:29:53;94840.34;;;6.31;94.28
42335;BME280;27986;42.700;24.178;2022-11-11T00:32:18;94891.72;;;7.00;93.37
42335;BME280;27986;42.700;24.178;2022-11-11T00:34:56;94887.09;;;7.12;90.68
42335;BME280;27986;42.700;24.178;2022-11-11T00:37:42;94897.88;;;6.65;90.89
42335;BME280;27986;42.700;24.178;2022-11-11T00:40:10;94879.53;;;6.64;92.58
42335;BME280;27986;42.700;24.178;2022-11-11T00:42:36;94847.84;;;6.25;92.52
42335;BME280;27986;42.700;24.178;2022-11-11T00:45:01;94892.22;;;6.51;94.61
42335;BME280;27986;42.700;24.178;2022-11-11T00:47:27;94850.47;;;6.29;93.80
42335;BME280;27986;42.700;24.178;2022-11-11T00:50:25;94853.03;;;6.41;93.95
42335;BME280;27986;42.700;24.178;2022-11-11T00:53:16;94860.47;;;6.44;93.62
42335;BME280;27986;42.700;24.178;2022-11-11T00:55:42;94862.88;;;6.61;91.87
42335;BME280;27986;42.700;24.178;2022-11-11T00:58:07;94867.84;;;6.66;91.06
42335;BME280;27986;42.700;24.178;2022-11-11T01:00:33;94890.47;;;6.53;92.54
42335;BME280;27986;42.700;24.178;2022-11-11T01:02:59;94883.50;;;6.48;92.58
42335;BME280;27986;42.700;24.178;2022-11-11T01:05:24;94865.16;;;6.47;93.04
42335;BME280;27986;42.700;24.178;2022-11-11T01:07:50;94839.56;;;6.55;91.93
42335;BME280;27986;42.700;24.178;2022-11-11T01:10:17;94901.81;;;6.59;91.83
42335;BME280;27986;42.700;24.178;2022-11-11T01:13:04;94851.91;;;6.24;94.36
42335;BME280;27986;42.700;24.178;2022-11-11T01:15:36;94867.34;;;6.10;96.84
42335;BME280;27986;42.700;24.178;2022-11-11T01:18:02;94896.44;;;6.13;99.44
42335;BME280;27986;42.700;24.178;2022-11-11T01:20:27;94840.38;;;5.98;100.00
42335;BME280;27986;42.700;24.178;2022-11-11T01:22:53;94820.81;;;6.13;99.94
42335;BME280;27986;42.700;24.178;2022-11-11T01:25:18;94895.38;;;6.67;97.43
42335;BME280;27986;42.700;24.178;2022-11-11T01:27:44;94878.63;;;6.58;95.06
42335;BME280;27986;42.700;24.178;2022-11-11T01:30:10;94772.75;;;5.90;94.38
42335;BME280;27986;42.700;24.178;2022-11-11T01:32:38;94853.75;;;6.51;93.94
42335;BME280;27986;42.700;24.178;2022-11-11T01:35:05;94867.81;;;6.42;94.88
42335;BME280;27986;42.700;24.178;2022-11-11T01:37:34;94886.78;;;6.71;95.42
42335;BME280;27986;42.700;24.178;2022-11-11T01:40:00;94857.53;;;6.48;94.24
42335;BME280;27986;42.700;24.178;2022-11-11T01:42:26;94881.16;;;6.71;94.00
42335;BME280;27986;42.700;24.178;2022-11-11T01:44:52;94892.09;;;6.69;95.43
42335;BME280;27986;42.700;24.178;2022-11-11T01:47:18;94885.91;;;6.65;95.74
42335;BME280;27986;42.700;24.178;2022-11-11T01:49:59;94899.84;;;6.74;94.85
42335;BME280;27986;42.700;24.178;2022-11-11T01:52:36;94889.78;;;6.67;95.18
42335;BME280;27986;42.700;24.178;2022-11-11T02:00:08;94874.78;;;6.94;95.98
42335;BME280;27986;42.700;24.178;2022-11-11T02:02:40;94760.44;;;5.97;96.50
42335;BME280;27986;42.700;24.178;2022-11-11T02:05:11;94858.53;;;6.60;96.45
42335;BME280;27986;42.700;24.178;2022-11-11T02:07:58;94879.13;;;6.71;98.38
42335;BME280;27986;42.700;24.178;2022-11-11T02:10:25;94865.81;;;6.66;95.78
42335;BME280;27986;42.700;24.178;2022-11-11T02:12:52;94890.91;;;6.61;96.03
42335;BME280;27986;42.700;24.178;2022-11-11T02:15:37;94881.16;;;6.47;95.76
42335;BME280;27986;42.700;24.178;2022-11-11T02:18:03;94850.34;;;6.23;96.54
42335;BME280;27986;42.700;24.178;2022-11-11T02:20:33;94882.13;;;6.44;96.55
42335;BME280;27986;42.700;24.178;2022-11-11T02:23:08;94891.66;;;6.37;96.21
42335;BME280;27986;42.700;24.178;2022-11-11T02:25:36;94854.75;;;6.39;94.81
42335;BME280;27986;42.700;24.178;2022-11-11T02:28:05;94895.16;;;6.47;93.19
42335;BME280;27986;42.700;24.178;2022-11-11T02:30:32;94847.97;;;6.31;93.89
42335;BME280;27986;42.700;24.178;2022-11-11T02:32:58;94890.00;;;6.78;93.24
42335;BME280;27986;42.700;24.178;2022-11-11T02:35:32;94885.84;;;6.74;92.50
42335;BME280;27986;42.700;24.178;2022-11-11T02:37:59;94902.38;;;6.39;96.03
42335;BME280;27986;42.700;24.178;2022-11-11T02:40:38;94898.59;;;6.75;95.57
42335;BME280;27986;42.700;24.178;2022-11-11T02:43:24;94895.06;;;6.89;94.12
42335;BME280;27986;42.700;24.178;2022-11-11T02:45:50;94897.13;;;7.03;91.71
42335;BME280;27986;42.700;24.178;2022-11-11T02:48:15;94855.09;;;6.80;89.38
42335;BME280;27986;42.700;24.178;2022-11-11T02:50:41;94851.53;;;6.79;89.33
42335;BME280;27986;42.700;24.178;2022-11-11T02:53:06;94876.94;;;6.99;88.09
42335;BME280;27986;42.700;24.178;2022-11-11T02:55:32;94891.97;;;6.87;87.30
42335;BME280;27986;42.700;24.178;2022-11-11T02:57:57;94881.91;;;6.57;88.20
42335;BME280;27986;42.700;24.178;2022-11-11T03:00:23;94864.19;;;6.51;88.53
42335;BME280;27986;42.700;24.178;2022-11-11T03:02:48;94900.88;;;6.29;90.74
42335;BME280;27986;42.700;24.178;2022-11-11T03:05:14;94892.47;;;6.29;91.94
42335;BME280;27986;42.700;24.178;2022-11-11T03:07:39;94854.22;;;5.92;91.91
42335;BME280;27986;42.700;24.178;2022-11-11T03:10:05;94809.16;;;5.81;91.24
42335;BME280;27986;42.700;24.178;2022-11-11T03:12:31;94892.41;;;6.05;91.75
42335;BME280;27986;42.700;24.178;2022-11-11T03:14:56;94807.81;;;5.68;90.99
42335;BME280;27986;42.700;24.178;2022-11-11T03:17:22;94905.97;;;6.39;90.58
42335;BME280;27986;42.700;24.178;2022-11-11T03:20:14;94910.66;;;6.33;90.19
42335;BME280;27986;42.700;24.178;2022-11-11T03:23:00;94906.25;;;6.41;90.79
42335;BME280;27986;42.700;24.178;2022-11-11T03:25:26;94866.09;;;6.11;90.59
42335;BME280;27986;42.700;24.178;2022-11-11T03:34:54;94910.66;;;6.33;92.14
42335;BME280;27986;42.700;24.178;2022-11-11T03:37:24;94912.22;;;6.34;90.77
42335;BME280;27986;42.700;24.178;2022-11-11T03:40:13;94920.63;;;5.83;92.72
42335;BME280;27986;42.700;24.178;2022-11-11T03:42:54;94890.94;;;5.76;93.77
42335;BME280;27986;42.700;24.178;2022-11-11T03:45:42;94914.91;;;5.68;96.44
42335;BME280;27986;42.700;24.178;2022-11-11T03:52:15;94918.56;;;6.02;96.10
42335;BME280;27986;42.700;24.178;2022-11-11T03:59:17;94931.88;;;6.25;95.38
42335;BME280;27986;42.700;24.178;2022-11-11T04:02:18;94932.16;;;6.27;93.07
42335;BME280;27986;42.700;24.178;2022-11-11T04:05:32;94931.19;;;6.39;92.93
42335;BME280;27986;42.700;24.178;2022-11-11T04:08:34;94920.69;;;6.16;93.85
42335;BME280;27986;42.700;24.178;2022-11-11T04:15:13;94947.41;;;6.26;95.88
42335;BME280;27986;42.700;24.178;2022-11-11T04:18:16;94944.63;;;6.26;96.36
42335;BME280;27986;42.700;24.178;2022-11-11T06:16:43;95027.25;;;8.66;88.56
42335;BME280;27986;42.700;24.178;2022-11-11T06:19:09;95029.63;;;8.73;89.21
42335;BME280;27986;42.700;24.178;2022-11-11T06:21:34;95036.56;;;8.58;90.69
42335;BME280;27986;42.700;24.178;2022-11-11T06:24:20;95010.38;;;8.52;91.51
42335;BME280;27986;42.700;24.178;2022-11-11T06:26:45;95018.22;;;8.62;91.53
42335;BME280;27986;42.700;24.178;2022-11-11T06:29:11;94998.06;;;8.49;91.63
42335;BME280;27986;42.700;24.178;2022-11-11T06:31:36;95029.56;;;8.53;92.76
42335;BME280;27986;42.700;24.178;2022-11-11T06:34:02;95022.56;;;8.63;92.27
42335;BME280;27986;42.700;24.178;2022-11-11T06:36:28;95037.00;;;8.86;91.97
42335;BME280;27986;42.700;24.178;2022-11-11T06:38:53;95044.97;;;9.08;95.47
42335;BME280;27986;42.700;24.178;2022-11-11T06:41:19;95015.06;;;9.66;93.89
42335;BME280;27986;42.700;24.178;2022-11-11T06:43:45;95051.31;;;10.45;87.98
42335;BME280;27986;42.700;24.178;2022-11-11T06:46:16;95043.78;;;11.31;83.48
42335;BME280;27986;42.700;24.178;2022-11-11T06:48:44;95042.72;;;11.23;80.40
42335;BME280;27986;42.700;24.178;2022-11-11T06:51:11;95021.66;;;11.24;79.46
42335;BME280;27986;42.700;24.178;2022-11-11T06:53:38;95046.59;;;11.74;79.07
42335;BME280;27986;42.700;24.178;2022-11-11T06:56:04;95057.25;;;12.01;77.38
42335;BME280;27986;42.700;24.178;2022-11-11T06:58:31;95034.69;;;12.18;75.05
42335;BME280;27986;42.700;24.178;2022-11-11T07:00:56;95059.69;;;12.31;74.88
42335;BME280;27986;42.700;24.178;2022-11-11T07:03:22;95020.03;;;12.08;74.53
42335;BME280;27986;42.700;24.178;2022-11-11T07:05:48;95060.25;;;12.57;75.33
42335;BME280;27986;42.700;24.178;2022-11-11T07:08:15;95049.47;;;12.61;74.70
42335;BME280;27986;42.700;24.178;2022-11-11T07:10:46;95038.16;;;12.73;74.43
42335;BME280;27986;42.700;24.178;2022-11-11T07:13:13;95050.53;;;12.98;73.77
42335;BME280;27986;42.700;24.178;2022-11-11T07:15:39;95053.09;;;12.90;73.49
42335;BME280;27986;42.700;24.178;2022-11-11T07:18:05;95053.81;;;12.57;74.27
42335;BME280;27986;42.700;24.178;2022-11-11T07:20:31;95061.69;;;12.14;78.41
42335;BME280;27986;42.700;24.178;2022-11-11T07:22:56;95047.56;;;12.14;78.08
42335;BME280;27986;42.700;24.178;2022-11-11T07:25:22;95046.13;;;12.57;77.23
42335;BME280;27986;42.700;24.178;2022-11-11T07:27:47;95052.00;;;12.48;77.43
42335;BME280;27986;42.700;24.178;2022-11-11T07:30:13;95012.69;;;12.61;76.60
42335;BME280;27986;42.700;24.178;2022-11-11T07:32:46;95038.94;;;12.90;75.39
42335;BME280;27986;42.700;24.178;2022-11-11T07:35:13;95046.13;;;12.63;75.58
42335;BME280;27986;42.700;24.178;2022-11-11T07:37:39;94998.53;;;11.68;77.87
42335;BME280;27986;42.700;24.178;2022-11-11T07:40:05;95044.03;;;11.76;81.39
42335;BME280;27986;42.700;24.178;2022-11-11T07:42:31;95015.53;;;11.79;83.05
42335;BME280;27986;42.700;24.178;2022-11-11T07:44:59;95045.91;;;11.90;82.04
42335;BME280;27986;42.700;24.178;2022-11-11T07:47:25;95019.47;;;11.93;82.89
42335;BME280;27986;42.700;24.178;2022-11-11T07:49:50;95016.00;;;12.43;79.99
42335;BME280;27986;42.700;24.178;2022-11-11T07:52:15;95033.47;;;12.30;78.66
42335;BME280;27986;42.700;24.178;2022-11-11T07:54:41;95043.50;;;11.72;80.71
42335;BME280;27986;42.700;24.178;2022-11-11T07:57:07;95045.78;;;11.19;86.10
42335;BME280;27986;42.700;24.178;2022-11-11T07:59:32;95018.09;;;10.86;87.58
42335;BME280;27986;42.700;24.178;2022-11-11T08:01:57;95014.75;;;10.88;88.50
42335;BME280;27986;42.700;24.178;2022-11-11T08:04:23;95058.81;;;10.80;89.91
42335;BME280;27986;42.700;24.178;2022-11-11T08:06:49;95044.88;;;10.70;90.90
42335;BME280;27986;42.700;24.178;2022-11-11T08:09:14;95041.47;;;10.61;90.27
42335;BME280;27986;42.700;24.178;2022-11-11T08:11:39;95055.28;;;10.85;88.27
42335;BME280;27986;42.700;24.178;2022-11-11T08:14:24;95052.78;;;10.98;88.88
42335;BME280;27986;42.700;24.178;2022-11-11T08:16:49;95068.56;;;10.84;89.14
42335;BME280;27986;42.700;24.178;2022-11-11T08:19:15;95068.75;;;10.75;91.30
42335;BME280;27986;42.700;24.178;2022-11-11T08:21:40;95052.91;;;10.78;91.73
42335;BME280;27986;42.700;24.178;2022-11-11T08:24:05;95075.88;;;10.96;91.33
42335;BME280;27986;42.700;24.178;2022-11-11T08:26:34;95039.63;;;10.58;92.66
42335;BME280;27986;42.700;24.178;2022-11-11T08:28:59;95047.59;;;10.33;93.06
42335;BME280;27986;42.700;24.178;2022-11-11T08:31:25;95078.00;;;10.50;93.44
42335;BME280;27986;42.700;24.178;2022-11-11T08:33:50;95074.41;;;10.23;94.91
42335;BME280;27986;42.700;24.178;2022-11-11T08:36:16;95075.03;;;10.12;96.68
42335;BME280;27986;42.700;24.178;2022-11-11T08:38:41;95055.34;;;9.72;98.47
42335;BME280;27986;42.700;24.178;2022-11-11T08:41:07;95093.13;;;9.65;100.00
42335;BME280;27986;42.700;24.178;2022-11-11T08:43:33;95078.28;;;9.65;100.00
42335;BME280;27986;42.700;24.178;2022-11-11T08:46:00;95056.81;;;9.47;100.00
42335;BME280;27986;42.700;24.178;2022-11-11T08:48:29;95084.63;;;9.59;100.00
42335;BME280;27986;42.700;24.178;2022-11-11T08:50:55;95077.88;;;9.51;100.00
42335;BME280;27986;42.700;24.178;2022-11-11T08:53:21;95089.41;;;9.53;100.00
42335;BME280;27986;42.700;24.178;2022-11-11T08:55:46;95054.88;;;9.38;100.00
42335;BME280;27986;42.700;24.178;2022-11-11T08:58:12;95087.13;;;9.57;100.00
42335;BME280;27986;42.700;24.178;2022-11-11T09:00:38;95066.75;;;9.42;100.00
42335;BME280;27986;42.700;24.178;2022-11-11T09:03:08;95071.16;;;9.49;100.00
42335;BME280;27986;42.700;24.178;2022-11-11T09:05:37;95079.63;;;9.69;100.00
42335;BME280;27986;42.700;24.178;2022-11-11T09:08:05;95095.25;;;9.70;100.00
42335;BME280;27986;42.700;24.178;2022-11-11T09:10:32;95106.13;;;9.77;100.00
42335;BME280;27986;42.700;24.178;2022-11-11T09:12:58;95101.88;;;9.67;100.00
42335;BME280;27986;42.700;24.178;2022-11-11T09:15:24;95076.78;;;9.49;100.00
42335;BME280;27986;42.700;24.178;2022-11-11T09:17:51;95077.13;;;9.36;100.00
42335;BME280;27986;42.700;24.178;2022-11-11T09:20:17;95085.59;;;9.21;100.00
42335;BME280;27986;42.700;24.178;2022-11-11T09:22:46;95109.03;;;9.48;100.00
42335;BME280;27986;42.700;24.178;2022-11-11T09:25:12;95065.63;;;9.19;100.00
42335;BME280;27986;42.700;24.178;2022-11-11T09:27:38;95111.03;;;9.62;100.00
42335;BME280;27986;42.700;24.178;2022-11-11T09:30:05;95102.22;;;9.54;100.00
42335;BME280;27986;42.700;24.178;2022-11-11T09:32:31;95068.84;;;9.47;100.00
42335;BME280;27986;42.700;24.178;2022-11-11T09:34:57;95091.44;;;9.73;100.00
42335;BME280;27986;42.700;24.178;2022-11-11T09:37:23;95084.50;;;9.69;100.00
42335;BME280;27986;42.700;24.178;2022-11-11T09:39:49;95097.16;;;9.79;100.00
42335;BME280;27986;42.700;24.178;2022-11-11T09:42:37;95098.50;;;9.83;100.00
42335;BME280;27986;42.700;24.178;2022-11-11T09:45:15;95096.53;;;9.69;100.00
42335;BME280;27986;42.700;24.178;2022-11-11T09:48:00;95097.06;;;9.53;100.00
42335;BME280;27986;42.700;24.178;2022-11-11T09:50:30;95089.03;;;9.46;100.00
42335;BME280;27986;42.700;24.178;2022-11-11T09:55:48;95093.53;;;9.58;100.00
42335;BME280;27986;42.700;24.178;2022-11-11T10:00:57;95087.84;;;9.73;100.00
42335;BME280;27986;42.700;24.178;2022-11-11T10:03:24;95073.44;;;9.85;99.26
42335;BME280;27986;42.700;24.178;2022-11-11T10:06:03;95076.81;;;9.90;98.05
42335;BME280;27986;42.700;24.178;2022-11-11T10:08:44;95030.13;;;9.63;98.40
42335;BME280;27986;42.700;24.178;2022-11-11T10:11:26;95082.38;;;9.84;97.80
42335;BME280;27986;42.700;24.178;2022-11-11T10:13:54;95054.22;;;9.64;98.95
42335;BME280;27986;42.700;24.178;2022-11-11T10:17:02;95080.81;;;9.63;98.25
42335;BME280;27986;42.700;24.178;2022-11-11T10:20:08;95059.66;;;9.67;97.52
42335;BME280;27986;42.700;24.178;2022-11-11T10:22:40;95074.63;;;9.58;98.74
42335;BME280;27986;42.700;24.178;2022-11-11T10:27:39;95078.50;;;9.61;98.40
42335;BME280;27986;42.700;24.178;2022-11-11T10:30:19;95030.59;;;9.41;98.67
42335;BME280;27986;42.700;24.178;2022-11-11T10:33:11;95050.41;;;9.46;99.00
42335;BME280;27986;42.700;24.178;2022-11-11T10:35:34;95067.78;;;9.65;98.42
42335;BME280;27986;42.700;24.178;2022-11-11T10:40:48;95077.78;;;9.46;100.00
42335;BME280;27986;42.700;24.178;2022-11-11T10:43:27;95056.59;;;9.50;100.00
42335;BME280;27986;42.700;24.178;2022-11-11T10:46:30;95066.19;;;9.58;100.00
42335;BME280;27986;42.700;24.178;2022-11-11T10:51:49;95053.78;;;9.50;100.00
42335;BME280;27986;42.700;24.178;2022-11-11T10:55:00;95019.91;;;9.24;100.00
42335;BME280;27986;42.700;24.178;2022-11-11T10:57:32;95030.91;;;9.43;100.00
42335;BME280;27986;42.700;24.178;2022-11-11T11:00:05;94997.31;;;9.39;100.00
42335;BME280;27986;42.700;24.178;2022-11-11T11:05:23;95044.19;;;9.83;95.04
42335;BME280;27986;42.700;24.178;2022-11-11T11:07:54;95029.28;;;9.77;96.63
42335;BME280;27986;42.700;24.178;2022-11-11T11:10:27;95029.50;;;9.73;96.64
42335;BME280;27986;42.700;24.178;2022-11-11T11:13:10;95015.13;;;9.30;100.00
42335;BME280;27986;42.700;24.178;2022-11-11T11:15:40;95056.66;;;9.36;100.00
42335;BME280;27986;42.700;24.178;2022-11-11T11:18:13;94983.03;;;9.02;100.00
42335;BME280;27986;42.700;24.178;2022-11-11T11:20:55;95037.69;;;9.51;100.00
42335;BME280;27986;42.700;24.178;2022-11-11T11:26:03;94995.00;;;9.17;100.00
42335;BME280;27986;42.700;24.178;2022-11-11T11:28:29;94992.66;;;9.16;99.45
42335;BME280;27986;42.700;24.178;2022-11-11T11:31:04;95026.56;;;9.42;99.41
42335;BME280;27986;42.700;24.178;2022-11-11T11:33:50;95030.78;;;9.52;99.03
42335;BME280;27986;42.700;24.178;2022-11-11T11:36:16;95021.06;;;9.53;96.95
42335;BME280;27986;42.700;24.178;2022-11-11T11:38:45;95021.41;;;9.61;96.21
42335;BME280;27986;42.700;24.178;2022-11-11T11:41:11;94978.97;;;9.44;95.36
42335;BME280;27986;42.700;24.178;2022-11-11T11:43:39;94978.19;;;9.43;92.38
42335;BME280;27986;42.700;24.178;2022-11-11T11:46:26;95012.59;;;9.73;92.14
42335;BME280;27986;42.700;24.178;2022-11-11T11:49:18;95001.31;;;9.73;91.75
42335;BME280;27986;42.700;24.178;2022-11-11T12:00:17;94989.63;;;9.80;90.69
42335;BME280;27986;42.700;24.178;2022-11-11T12:03:01;95008.84;;;9.82;90.63
42335;BME280;27986;42.700;24.178;2022-11-11T12:05:48;94997.03;;;9.78;90.54
42335;BME280;27986;42.700;24.178;2022-11-11T12:19:03;95021.50;;;10.12;84.93
42335;BME280;27986;42.700;24.178;2022-11-11T12:24:42;95008.50;;;10.21;84.49
42335;BME280;27986;42.700;24.178;2022-11-11T12:27:31;95007.81;;;10.26;83.58
42335;BME280;27986;42.700;24.178;2022-11-11T12:30:03;95008.09;;;10.28;83.30
42335;BME280;27986;42.700;24.178;2022-11-11T12:32:44;95002.97;;;10.26;84.80
42335;BME280;27986;42.700;24.178;2022-11-11T12:38:37;94998.56;;;10.25;83.62
42335;BME280;27986;42.700;24.178;2022-11-11T12:49:27;94975.81;;;10.29;80.55
42335;BME280;27986;42.700;24.178;2022-11-11T12:52:00;94976.13;;;10.36;80.36
42335;BME280;27986;42.700;24.178;2022-11-11T12:57:37;94990.88;;;10.52;76.04
42335;BME280;27986;42.700;24.178;2022-11-11T13:00:24;94990.97;;;10.63;74.91
42335;BME280;27986;42.700;24.178;2022-11-11T13:05:33;94996.56;;;10.89;74.30
42335;BME280;27986;42.700;24.178;2022-11-11T13:13:53;94980.25;;;10.35;81.02
42335;BME280;27986;42.700;24.178;2022-11-11T13:16:23;94982.88;;;10.19;82.68
42335;BME280;27986;42.700;24.178;2022-11-11T13:21:25;94960.03;;;9.91;84.51
42335;BME280;27986;42.700;24.178;2022-11-11T13:23:55;95002.53;;;10.13;84.47
42335;BME280;27986;42.700;24.178;2022-11-11T13:26:35;94992.38;;;10.21;83.06
42335;BME280;27986;42.700;24.178;2022-11-11T13:37:49;95001.69;;;10.59;82.20
42335;BME280;27986;42.700;24.178;2022-11-11T13:40:29;95012.69;;;10.51;83.62
42335;BME280;27986;42.700;24.178;2022-11-11T13:42:57;94976.31;;;10.27;81.81
42335;BME280;27986;42.700;24.178;2022-11-11T13:45:27;94970.38;;;10.25;82.02
42335;BME280;27986;42.700;24.178;2022-11-11T13:47:54;95003.38;;;10.45;82.79
42335;BME280;27986;42.700;24.178;2022-11-11T13:50:32;94985.56;;;10.33;81.89
42335;BME280;27986;42.700;24.178;2022-11-11T13:53:06;95000.50;;;10.39;82.65
42335;BME280;27986;42.700;24.178;2022-11-11T13:55:42;94961.59;;;10.18;83.13
42335;BME280;27986;42.700;24.178;2022-11-11T13:58:39;95007.97;;;10.42;83.06
42335;BME280;27986;42.700;24.178;2022-11-11T14:01:08;94982.47;;;10.26;83.41
42335;BME280;27986;42.700;24.178;2022-11-11T14:03:35;95013.13;;;10.44;83.12
42335;BME280;27986;42.700;24.178;2022-11-11T14:13:55;94993.78;;;10.63;83.54
42335;BME280;27986;42.700;24.178;2022-11-11T14:21:52;94997.69;;;11.03;83.16
42335;BME280;27986;42.700;24.178;2022-11-11T14:24:38;94992.00;;;10.97;81.88
42335;BME280;27986;42.700;24.178;2022-11-11T14:27:15;94970.59;;;10.48;83.73
42335;BME280;27986;42.700;24.178;2022-11-11T14:29:53;94999.94;;;10.61;83.80
42335;BME280;27986;42.700;24.178;2022-11-11T14:38:29;94999.19;;;10.66;83.68
42335;BME280;27986;42.700;24.178;2022-11-11T14:49:51;95010.59;;;10.78;82.90
42335;BME280;27986;42.700;24.178;2022-11-11T14:52:37;95023.34;;;10.73;83.03
42335;BME280;27986;42.700;24.178;2022-11-11T14:55:24;95007.97;;;10.74;82.96
42335;BME280;27986;42.700;24.178;2022-11-11T14:58:12;95008.75;;;10.75;82.65
42335;BME280;27986;42.700;24.178;2022-11-11T15:00:51;95002.25;;;10.63;83.87
42335;BME280;27986;42.700;24.178;2022-11-11T15:03:48;94991.13;;;10.22;85.91
42335;BME280;27986;42.700;24.178;2022-11-11T15:06:43;95021.25;;;10.36;86.27
42335;BME280;27986;42.700;24.178;2022-11-11T15:12:03;95009.53;;;10.43;85.90
42335;BME280;27986;42.700;24.178;2022-11-11T15:17:14;95025.22;;;10.24;86.19
42335;BME280;27986;42.700;24.178;2022-11-11T15:22:33;95026.66;;;10.40;86.64
42335;BME280;27986;42.700;24.178;2022-11-11T15:31:04;94982.91;;;9.98;90.40
42335;BME280;27986;42.700;24.178;2022-11-11T15:39:10;94961.41;;;9.75;92.98
42335;BME280;27986;42.700;24.178;2022-11-11T15:41:39;95009.88;;;10.05;93.09
42335;BME280;27986;42.700;24.178;2022-11-11T15:44:27;94986.56;;;10.04;93.03
42335;BME280;27986;42.700;24.178;2022-11-11T15:46:53;94971.81;;;9.89;92.54
42335;BME280;27986;42.700;24.178;2022-11-11T15:49:38;95011.81;;;10.19;91.00
42335;BME280;27986;42.700;24.178;2022-11-11T15:52:23;94984.41;;;9.94;92.53
42335;BME280;27986;42.700;24.178;2022-11-11T15:54:50;94984.00;;;10.06;93.14
42335;BME280;27986;42.700;24.178;2022-11-11T15:59:52;95001.31;;;10.20;93.43
42335;BME280;27986;42.700;24.178;2022-11-11T16:02:22;94999.97;;;10.35;92.67
42335;BME280;27986;42.700;24.178;2022-11-11T16:04:58;95007.91;;;10.37;91.97
42335;BME280;27986;42.700;24.178;2022-11-11T16:07:35;95012.53;;;10.34;92.17
42335;BME280;27986;42.700;24.178;2022-11-11T16:10:13;95015.59;;;10.36;92.47
42335;BME280;27986;42.700;24.178;2022-11-11T16:12:50;95017.94;;;10.38;83.19
42335;BME280;27986;42.700;24.178;2022-11-11T16:17:53;94995.28;;;10.27;92.17
42335;BME280;27986;42.700;24.178;2022-11-11T16:20:25;94986.31;;;10.28;92.48
42335;BME280;27986;42.700;24.178;2022-11-11T16:22:54;95022.72;;;10.58;91.59
42335;BME280;27986;42.700;24.178;2022-11-11T16:25:22;95025.25;;;10.56;91.06
42335;BME280;27986;42.700;24.178;2022-11-11T16:27:48;95033.59;;;10.70;91.11
42335;BME280;27986;42.700;24.178;2022-11-11T16:30:35;95036.97;;;10.75;90.43
42335;BME280;27986;42.700;24.178;2022-11-11T16:33:01;95028.31;;;10.84;89.49
42335;BME280;27986;42.700;24.178;2022-11-11T16:35:36;95012.31;;;10.69;87.76
42335;BME280;27986;42.700;24.178;2022-11-11T16:38:02;95004.59;;;10.38;87.21
42335;BME280;27986;42.700;24.178;2022-11-11T16:43:16;95050.88;;;10.52;86.32
42335;BME280;27986;42.700;24.178;2022-11-11T16:45:52;95046.72;;;10.48;86.68
42335;BME280;27986;42.700;24.178;2022-11-11T16:51:08;95052.78;;;10.66;86.81
42335;BME280;27986;42.700;24.178;2022-11-11T16:53:42;95059.66;;;10.34;88.30
42335;BME280;27986;42.700;24.178;2022-11-11T16:56:30;94980.91;;;9.78;88.35
42335;BME280;27986;42.700;24.178;2022-11-11T16:59:05;95057.91;;;10.36;89.14
42335;BME280;27986;42.700;24.178;2022-11-11T17:01:41;95040.38;;;10.27;90.12
42335;BME280;27986;42.700;24.178;2022-11-11T17:04:07;94993.97;;;10.02;90.85
42335;BME280;27986;42.700;24.178;2022-11-11T17:06:59;95016.97;;;10.21;89.99
42335;BME280;27986;42.700;24.178;2022-11-11T17:12:01;95053.13;;;10.48;88.45
42335;BME280;27986;42.700;24.178;2022-11-11T17:14:29;95054.97;;;10.51;86.74
42335;BME280;27986;42.700;24.178;2022-11-11T17:16:56;95069.09;;;10.57;86.48
42335;BME280;27986;42.700;24.178;2022-11-11T17:19:23;95039.78;;;10.43;85.85
42335;BME280;27986;42.700;24.178;2022-11-11T17:21:48;95070.28;;;10.45;86.71
42335;BME280;27986;42.700;24.178;2022-11-11T17:24:14;95081.66;;;10.30;87.69
42335;BME280;27986;42.700;24.178;2022-11-11T17:26:41;95063.38;;;10.46;86.91
42335;BME280;27986;42.700;24.178;2022-11-11T17:29:08;95042.09;;;10.45;86.57
42335;BME280;27986;42.700;24.178;2022-11-11T17:31:35;95073.66;;;10.49;86.85
42335;BME280;27986;42.700;24.178;2022-11-11T17:34:06;95066.72;;;10.50;87.15
42335;BME280;27986;42.700;24.178;2022-11-11T17:36:32;95060.09;;;10.53;86.62
42335;BME280;27986;42.700;24.178;2022-11-11T17:38:58;95032.88;;;10.50;86.54
42335;BME280;27986;42.700;24.178;2022-11-11T17:41:23;95079.72;;;10.67;87.73
42335;BME280;27986;42.700;24.178;2022-11-11T17:43:49;95073.53;;;10.63;88.65
42335;BME280;27986;42.700;24.178;2022-11-11T17:46:14;95043.47;;;10.29;88.06
42335;BME280;27986;42.700;24.178;2022-11-11T17:48:39;95071.56;;;10.43;85.52
42335;BME280;27986;42.700;24.178;2022-11-11T17:51:05;95022.94;;;9.82;87.58
42335;BME280;27986;42.700;24.178;2022-11-11T17:53:35;95072.84;;;10.22;87.45
42335;BME280;27986;42.700;24.178;2022-11-11T17:56:02;95029.09;;;10.27;86.03
42335;BME280;27986;42.700;24.178;2022-11-11T17:58:28;94998.53;;;9.99;82.94